Time;durP1;ratioP1;P1;durP2;ratioP2;P2;SDS_P1;SDS_P2;PMS_P1;PMS_P2;Temp;Humidity;BMP_temperature;BMP_pressure;BME280_temperature;BME280_humidity;BME280_pressure;Samples;Min_cycle;Max_cycle;Signal;HPM_P1;HPM_P2
2021/12/30 00:01:06;;;;;;;8.40;3.47;;;19.30;99.90;;;;;;4179918;28;20734;-75
2021/12/30 00:03:08;;;;;;;7.88;3.03;;;19.20;99.90;;;;;;4179650;28;20257;-75
2021/12/30 00:05:11;;;;;;;7.95;3.22;;;19.30;99.90;;;;;;4179798;28;21018;-75
2021/12/30 00:07:15;;;;;;;11.27;4.38;;;19.20;99.90;;;;;;4179852;28;20227;-75
2021/12/30 00:09:18;;;;;;;9.90;3.45;;;19.20;99.90;;;;;;4180391;28;20220;-75
2021/12/30 00:11:21;;;;;;;9.18;3.63;;;19.20;99.90;;;;;;4179983;28;20869;-75
2021/12/30 00:13:24;;;;;;;9.18;3.65;;;19.20;99.90;;;;;;4179803;28;20285;-75
2021/12/30 00:15:26;;;;;;;10.13;3.58;;;19.20;99.90;;;;;;4180525;28;20269;-75
2021/12/30 00:17:29;;;;;;;8.00;3.28;;;19.20;99.90;;;;;;4179947;28;20220;-75
2021/12/30 00:19:31;;;;;;;7.68;3.00;;;19.20;99.90;;;;;;4180002;28;20211;-75
2021/12/30 00:21:33;;;;;;;8.43;3.70;;;19.20;99.90;;;;;;4176018;28;20208;-75
2021/12/30 00:23:37;;;;;;;8.57;3.20;;;19.20;99.90;;;;;;4181117;28;20216;-75
2021/12/30 00:25:41;;;;;;;7.47;3.20;;;19.20;99.90;;;;;;4196575;28;20621;-75
2021/12/30 00:27:44;;;;;;;6.85;3.40;;;19.20;99.90;;;;;;4196647;28;20222;-75
2021/12/30 00:29:46;;;;;;;7.07;3.45;;;19.20;99.90;;;;;;4196592;28;20218;-75
2021/12/30 00:31:48;;;;;;;8.63;3.13;;;19.20;99.90;;;;;;4196322;28;20222;-75
2021/12/30 00:33:51;;;;;;;8.65;3.38;;;19.20;99.90;;;;;;4196194;28;20243;-75
2021/12/30 00:35:53;;;;;;;7.53;3.42;;;19.20;99.90;;;;;;4196231;28;20240;-75
2021/12/30 00:37:56;;;;;;;7.18;3.45;;;19.10;99.90;;;;;;4195280;28;20219;-75
2021/12/30 00:39:59;;;;;;;8.27;3.10;;;19.20;99.90;;;;;;4196853;28;20214;-79
2021/12/30 00:42:02;;;;;;;8.80;2.90;;;19.20;99.90;;;;;;4196776;28;20260;-79
2021/12/30 00:44:05;;;;;;;10.52;3.42;;;19.20;99.90;;;;;;4196528;28;20269;-75
2021/12/30 00:46:09;;;;;;;7.82;2.92;;;19.10;99.90;;;;;;4193311;28;20266;-75
2021/12/30 00:48:11;;;;;;;8.95;3.17;;;19.10;99.90;;;;;;4179774;28;20219;-75
2021/12/30 00:50:14;;;;;;;8.65;3.35;;;19.20;99.90;;;;;;4180001;28;20216;-75
2021/12/30 00:52:16;;;;;;;11.73;3.78;;;19.20;99.90;;;;;;4179683;28;20219;-75
2021/12/30 00:54:18;;;;;;;7.85;3.25;;;19.10;99.90;;;;;;4179800;28;20266;-75
2021/12/30 00:56:22;;;;;;;10.35;3.55;;;19.20;99.90;;;;;;4179436;28;20285;-75
2021/12/30 00:58:24;;;;;;;7.70;3.17;;;19.10;99.90;;;;;;4179587;28;20212;-75
2021/12/30 01:00:27;;;;;;;6.95;3.10;;;19.10;99.90;;;;;;4179737;28;20216;-75
2021/12/30 01:02:29;;;;;;;9.60;2.92;;;19.20;99.90;;;;;;4179393;28;20211;-75
2021/12/30 01:04:31;;;;;;;10.13;3.70;;;19.10;99.90;;;;;;4179865;28;20216;-75
2021/12/30 01:06:34;;;;;;;7.05;3.10;;;19.10;99.90;;;;;;4179640;28;20216;-75
2021/12/30 01:08:36;;;;;;;6.68;3.10;;;19.10;99.90;;;;;;4179350;28;20253;-75
2021/12/30 01:10:41;;;;;;;8.43;3.17;;;19.10;99.90;;;;;;4179277;28;20212;-75
2021/12/30 01:12:47;;;;;;;7.15;2.95;;;19.20;99.90;;;;;;4179668;28;20575;-75
2021/12/30 01:14:50;;;;;;;5.65;3.17;;;19.10;99.90;;;;;;4182256;28;20216;-75
2021/12/30 01:16:57;;;;;;;9.13;3.30;;;19.10;99.90;;;;;;4182507;28;20215;-75
2021/12/30 01:19:14;;;;;;;8.02;3.17;;;19.10;99.90;;;;;;4182640;28;20220;-75
2021/12/30 01:21:17;;;;;;;6.35;2.88;;;19.10;99.90;;;;;;4183104;28;20219;-75
2021/12/30 01:23:19;;;;;;;7.97;3.10;;;19.10;99.90;;;;;;4182278;28;20208;-75
2021/12/30 01:25:22;;;;;;;8.65;2.90;;;19.10;99.90;;;;;;4182013;28;20262;-75
2021/12/30 01:27:24;;;;;;;7.70;3.08;;;19.10;99.90;;;;;;4182207;28;20215;-75
2021/12/30 01:29:29;;;;;;;7.50;2.72;;;19.10;99.90;;;;;;4182034;28;20215;-75
2021/12/30 01:31:31;;;;;;;5.93;2.42;;;19.10;99.90;;;;;;4182252;28;20273;-75
2021/12/30 01:33:34;;;;;;;6.05;2.67;;;19.10;99.90;;;;;;4182185;28;20239;-75
2021/12/30 01:35:37;;;;;;;7.25;3.10;;;19.10;99.90;;;;;;4182280;28;20404;-75
2021/12/30 01:37:40;;;;;;;4.95;2.47;;;19.10;99.90;;;;;;4181049;28;20211;-75
2021/12/30 01:39:42;;;;;;;9.52;3.53;;;19.10;99.90;;;;;;4181981;28;20262;-75
2021/12/30 01:41:44;;;;;;;7.03;2.92;;;19.10;99.90;;;;;;4182458;28;20274;-75
2021/12/30 01:43:47;;;;;;;8.25;3.40;;;19.10;99.90;;;;;;4182209;28;20215;-75
2021/12/30 01:45:51;;;;;;;7.53;2.72;;;19.10;99.90;;;;;;4182062;28;20262;-75
2021/12/30 01:47:57;;;;;;;8.23;2.85;;;19.10;99.90;;;;;;4182549;28;20605;-75
2021/12/30 01:50:00;;;;;;;7.13;2.97;;;19.00;99.90;;;;;;4182260;28;20227;-75
2021/12/30 01:52:02;;;;;;;4.88;2.70;;;19.10;99.90;;;;;;4181822;28;20627;-75
2021/12/30 01:54:05;;;;;;;6.28;2.45;;;19.10;99.90;;;;;;4181984;28;20286;-75
2021/12/30 01:56:08;;;;;;;6.68;2.85;;;19.00;99.90;;;;;;4181851;28;20566;-75
2021/12/30 01:58:11;;;;;;;6.55;3.10;;;19.10;99.90;;;;;;4181792;28;20211;-75
2021/12/30 02:00:18;;;;;;;6.45;2.63;;;19.00;99.90;;;;;;4181499;28;20549;-75
2021/12/30 02:02:22;;;;;;;6.63;2.78;;;19.00;99.90;;;;;;4181473;28;20262;-75
2021/12/30 02:04:25;;;;;;;6.78;3.03;;;19.10;99.90;;;;;;4182069;28;20234;-75
2021/12/30 02:06:27;;;;;;;6.43;2.88;;;19.10;99.90;;;;;;4181661;28;20270;-75
2021/12/30 02:08:29;;;;;;;7.00;2.75;;;19.10;99.90;;;;;;4181623;28;20266;-75
2021/12/30 02:10:32;;;;;;;5.18;2.50;;;19.00;99.90;;;;;;4176451;28;20266;-75
2021/12/30 02:12:36;;;;;;;6.35;2.90;;;19.00;99.90;;;;;;4189092;28;20260;-75
2021/12/30 02:14:38;;;;;;;6.55;2.60;;;19.00;99.90;;;;;;4198123;28;20650;-75
2021/12/30 02:16:41;;;;;;;6.47;2.65;;;19.00;99.90;;;;;;4198076;28;20268;-75
2021/12/30 02:18:45;;;;;;;5.78;2.35;;;19.00;99.90;;;;;;4198285;28;20215;-75
2021/12/30 02:20:52;;;;;;;5.13;2.50;;;19.00;99.90;;;;;;4198548;28;20695;-75
2021/12/30 02:22:54;;;;;;;5.93;2.67;;;19.00;99.90;;;;;;4198325;28;20638;-75
2021/12/30 02:24:58;;;;;;;6.43;2.65;;;19.00;99.90;;;;;;4197456;28;20215;-75
2021/12/30 02:27:00;;;;;;;5.22;2.30;;;19.00;99.90;;;;;;4198072;28;20219;-75
2021/12/30 02:29:03;;;;;;;6.38;2.80;;;19.00;99.90;;;;;;4197965;28;20701;-75
2021/12/30 02:31:08;;;;;;;6.13;2.97;;;19.00;99.90;;;;;;4197707;28;20215;-75
2021/12/30 02:33:11;;;;;;;7.15;2.88;;;19.00;99.90;;;;;;4197533;28;20239;-75
2021/12/30 02:35:13;;;;;;;5.47;2.42;;;19.00;99.90;;;;;;4197959;28;20676;-75
2021/12/30 02:37:19;;;;;;;4.88;2.22;;;19.00;99.90;;;;;;4197786;28;20219;-75
2021/12/30 02:39:23;;;;;;;6.63;2.25;;;19.00;99.90;;;;;;4198043;28;20656;-75
2021/12/30 02:41:27;;;;;;;4.90;2.58;;;19.00;99.90;;;;;;4198084;28;20341;-75
2021/12/30 02:43:32;;;;;;;6.22;2.75;;;18.90;99.90;;;;;;4197700;28;20215;-75
2021/12/30 02:45:34;;;;;;;4.68;2.35;;;19.00;99.90;;;;;;4197781;28;20218;-75
2021/12/30 02:47:37;;;;;;;5.78;2.35;;;19.00;99.90;;;;;;4182510;28;20274;-75
2021/12/30 02:49:40;;;;;;;6.22;2.75;;;18.90;99.90;;;;;;4180716;28;20219;-75
2021/12/30 02:51:43;;;;;;;4.80;2.25;;;19.00;99.90;;;;;;4181239;28;20273;-75
2021/12/30 02:53:47;;;;;;;6.25;2.20;;;19.00;99.90;;;;;;4181428;28;20243;-75
2021/12/30 02:55:53;;;;;;;5.63;2.20;;;19.00;99.90;;;;;;4180680;28;20286;-75
2021/12/30 02:57:55;;;;;;;4.55;2.28;;;19.00;99.90;;;;;;4181020;28;20220;-75
2021/12/30 02:59:58;;;;;;;3.83;2.38;;;18.90;99.90;;;;;;4181303;28;20673;-75
2021/12/30 03:02:00;;;;;;;6.53;2.35;;;18.90;99.90;;;;;;4180655;28;20223;-75
2021/12/30 03:04:03;;;;;;;4.05;1.88;;;18.90;99.90;;;;;;4180687;28;20216;-75
2021/12/30 03:06:08;;;;;;;5.40;2.30;;;18.90;99.90;;;;;;4180602;28;20270;-75
2021/12/30 03:08:10;;;;;;;5.93;2.30;;;18.90;99.90;;;;;;4181073;28;20223;-75
2021/12/30 03:10:21;;;;;;;5.95;2.33;;;18.90;99.90;;;;;;4180938;28;20223;-75
2021/12/30 03:12:23;;;;;;;5.55;2.22;;;18.90;99.90;;;;;;4180938;28;20215;-75
2021/12/30 03:14:26;;;;;;;4.97;2.03;;;18.90;99.90;;;;;;4180615;28;20231;-75
2021/12/30 03:16:32;;;;;;;4.75;2.03;;;18.90;99.90;;;;;;4181067;28;20632;-75
2021/12/30 03:18:36;;;;;;;5.53;2.40;;;18.90;99.90;;;;;;4181094;28;20614;-75
2021/12/30 03:20:38;;;;;;;4.60;2.20;;;18.90;99.90;;;;;;4180835;28;20258;-75
2021/12/30 03:22:43;;;;;;;4.70;2.13;;;18.90;99.90;;;;;;4180604;28;20273;-75
2021/12/30 03:24:45;;;;;;;4.70;2.35;;;18.90;99.90;;;;;;4180527;28;20211;-75
2021/12/30 03:26:49;;;;;;;5.50;2.42;;;18.90;99.90;;;;;;4180739;28;20254;-75
2021/12/30 03:28:51;;;;;;;5.05;2.30;;;18.90;99.90;;;;;;4180319;28;20656;-75
2021/12/30 03:30:58;;;;;;;5.10;2.08;;;18.90;99.90;;;;;;4180415;28;20611;-75
2021/12/30 03:33:04;;;;;;;4.07;1.90;;;18.90;99.90;;;;;;4180354;28;20292;-75
2021/12/30 03:35:09;;;;;;;4.18;1.73;;;18.90;99.90;;;;;;4179984;28;20297;-75
2021/12/30 03:37:12;;;;;;;3.38;1.92;;;18.90;99.90;;;;;;4180221;28;20216;-75
2021/12/30 03:39:14;;;;;;;3.97;1.80;;;18.90;99.90;;;;;;4180460;28;20219;-74
2021/12/30 03:41:19;;;;;;;3.10;1.65;;;18.90;99.90;;;;;;4180442;28;20257;-75
2021/12/30 03:43:23;;;;;;;3.45;1.90;;;18.90;99.90;;;;;;4180322;28;20216;-75
2021/12/30 03:45:26;;;;;;;4.00;2.08;;;18.90;99.90;;;;;;4180086;28;20281;-75
2021/12/30 03:47:28;;;;;;;4.53;2.10;;;18.90;99.90;;;;;;4180209;28;20547;-75
2021/12/30 03:49:30;;;;;;;4.82;2.00;;;18.90;99.90;;;;;;4180150;28;20323;-75
2021/12/30 03:51:38;;;;;;;3.17;1.50;;;18.90;99.90;;;;;;4180021;28;20216;-75
2021/12/30 03:53:42;;;;;;;4.72;2.13;;;18.90;99.90;;;;;;4180413;28;20207;-75
2021/12/30 03:55:46;;;;;;;4.18;1.90;;;18.90;99.90;;;;;;4180413;28;20766;-75
2021/12/30 03:57:49;;;;;;;4.10;1.95;;;18.90;99.90;;;;;;4180465;28;20738;-75
2021/12/30 03:59:53;;;;;;;4.30;2.03;;;18.80;99.90;;;;;;4176961;28;20211;-75
2021/12/30 04:01:55;;;;;;;4.72;2.08;;;18.90;99.90;;;;;;4195184;28;20215;-75
2021/12/30 04:03:58;;;;;;;4.43;2.13;;;18.80;99.90;;;;;;4196534;28;20276;-75
2021/12/30 04:06:01;;;;;;;3.67;1.70;;;18.90;99.90;;;;;;4196807;28;20215;-75
2021/12/30 04:08:03;;;;;;;3.80;1.77;;;18.90;99.90;;;;;;4196404;28;20257;-75
2021/12/30 04:10:08;;;;;;;4.32;2.13;;;18.90;99.90;;;;;;4196900;28;20211;-75
2021/12/30 04:12:10;;;;;;;2.85;1.70;;;18.90;99.90;;;;;;4196780;28;20618;-75
2021/12/30 04:14:12;;;;;;;3.40;1.85;;;18.90;99.90;;;;;;4196889;28;20207;-75
2021/12/30 04:16:16;;;;;;;2.63;1.50;;;18.80;99.90;;;;;;4196778;28;20265;-75
2021/12/30 04:18:19;;;;;;;3.90;2.03;;;18.80;99.90;;;;;;4196486;28;20220;-75
2021/12/30 04:20:21;;;;;;;3.40;1.80;;;18.90;99.90;;;;;;4196489;28;20261;-75
2021/12/30 04:22:23;;;;;;;5.20;1.70;;;18.80;99.90;;;;;;4196698;28;20211;-75
2021/12/30 04:24:26;;;;;;;2.78;1.63;;;18.80;99.90;;;;;;4196459;28;20254;-75
2021/12/30 04:26:28;;;;;;;3.28;1.63;;;18.80;99.90;;;;;;4197064;28;20245;-75
2021/12/30 04:28:31;;;;;;;5.45;1.77;;;18.80;99.90;;;;;;4196556;28;20210;-75
2021/12/30 04:30:33;;;;;;;3.05;1.63;;;18.80;99.90;;;;;;4196751;28;20223;-75
2021/12/30 04:32:37;;;;;;;3.30;1.65;;;18.80;99.90;;;;;;4196140;28;20722;-75
2021/12/30 04:34:39;;;;;;;5.25;1.77;;;18.80;99.90;;;;;;4196616;28;20238;-75
2021/12/30 04:36:42;;;;;;;3.55;1.75;;;18.80;99.90;;;;;;4196489;28;20211;-75
2021/12/30 04:38:44;;;;;;;3.40;1.60;;;18.80;99.90;;;;;;4196580;28;20281;-74
2021/12/30 04:40:47;;;;;;;3.45;1.60;;;18.80;99.90;;;;;;4196663;28;20625;-75
2021/12/30 04:42:50;;;;;;;2.65;1.80;;;18.80;99.90;;;;;;4196276;28;20723;-75
2021/12/30 04:44:53;;;;;;;2.75;1.40;;;18.80;99.90;;;;;;4196518;28;20265;-75
2021/12/30 04:46:55;;;;;;;2.28;1.48;;;18.80;99.90;;;;;;4186802;28;20207;-75
2021/12/30 04:48:59;;;;;;;2.97;1.35;;;18.80;99.90;;;;;;4182284;28;20250;-75
2021/12/30 04:51:01;;;;;;;3.30;1.60;;;18.80;99.90;;;;;;4183001;28;20220;-75
2021/12/30 04:53:04;;;;;;;4.03;1.60;;;18.80;99.90;;;;;;4183063;28;20211;-75
2021/12/30 04:55:08;;;;;;;3.70;1.88;;;18.80;99.90;;;;;;4182988;28;20305;-75
2021/12/30 04:57:11;;;;;;;3.78;1.40;;;18.80;99.90;;;;;;4182740;28;20334;-75
2021/12/30 04:59:13;;;;;;;4.03;1.55;;;18.80;99.90;;;;;;4182620;28;20211;-75
2021/12/30 05:01:15;;;;;;;3.50;1.70;;;18.80;99.90;;;;;;4182461;28;20683;-75
2021/12/30 05:03:20;;;;;;;3.08;1.45;;;18.80;99.90;;;;;;4182418;28;20619;-75
2021/12/30 05:05:24;;;;;;;4.05;1.67;;;18.80;99.90;;;;;;4182822;28;20720;-75
2021/12/30 05:07:26;;;;;;;1.92;1.20;;;18.80;99.90;;;;;;4182753;28;20212;-75
2021/12/30 05:09:28;;;;;;;4.65;1.70;;;18.80;99.90;;;;;;4182713;28;20219;-75
2021/12/30 05:11:30;;;;;;;3.00;1.42;;;18.80;99.90;;;;;;4182497;28;20223;-74
2021/12/30 05:13:33;;;;;;;2.35;1.50;;;18.80;99.90;;;;;;4182486;28;20216;-75
2021/12/30 05:15:39;;;;;;;2.17;1.40;;;18.80;99.90;;;;;;4182230;28;20286;-75
2021/12/30 05:17:43;;;;;;;2.60;1.48;;;18.80;99.90;;;;;;4182710;28;20262;-75
2021/12/30 05:19:45;;;;;;;4.00;1.67;;;18.80;99.90;;;;;;4182496;28;20258;-75
2021/12/30 05:21:49;;;;;;;3.25;1.33;;;18.80;99.90;;;;;;4182523;28;20273;-75
2021/12/30 05:23:51;;;;;;;3.10;1.50;;;18.80;99.90;;;;;;4182517;28;20262;-75
2021/12/30 05:25:54;;;;;;;2.72;1.58;;;18.70;99.90;;;;;;4182295;28;20284;-75
2021/12/30 05:27:56;;;;;;;2.47;1.35;;;18.70;99.90;;;;;;4182174;28;20228;-75
2021/12/30 05:29:59;;;;;;;2.35;1.63;;;18.80;99.90;;;;;;4182200;28;20617;-75
2021/12/30 05:32:01;;;;;;;2.97;1.30;;;18.80;99.90;;;;;;4182503;28;20664;-75
2021/12/30 05:34:03;;;;;;;2.92;1.50;;;18.70;99.90;;;;;;4181903;28;20712;-75
2021/12/30 05:36:06;;;;;;;2.30;1.48;;;18.80;99.90;;;;;;4182451;28;20235;-74
2021/12/30 05:38:09;;;;;;;3.40;1.65;;;18.80;99.90;;;;;;4182408;28;20231;-75
2021/12/30 05:40:14;;;;;;;3.13;1.60;;;18.80;99.90;;;;;;4182182;28;20664;-75
2021/12/30 05:42:17;;;;;;;2.05;1.23;;;18.70;99.90;;;;;;4182349;28;20238;-75
2021/12/30 05:44:19;;;;;;;3.33;1.85;;;18.80;99.90;;;;;;4182178;28;20603;-75
2021/12/30 05:46:21;;;;;;;2.35;1.23;;;18.80;99.90;;;;;;4179990;28;20254;-75
2021/12/30 05:48:24;;;;;;;3.67;2.03;;;18.70;99.90;;;;;;4184283;28;20212;-75
2021/12/30 05:50:28;;;;;;;2.83;1.40;;;18.70;99.90;;;;;;4198549;28;20680;-75
2021/12/30 05:52:30;;;;;;;1.60;1.25;;;18.70;99.90;;;;;;4198799;28;20620;-74
2021/12/30 05:54:34;;;;;;;2.33;1.40;;;18.70;99.90;;;;;;4198299;28;20241;-75
2021/12/30 05:56:36;;;;;;;2.08;1.35;;;18.70;99.90;;;;;;4198108;28;20238;-75
2021/12/30 05:58:38;;;;;;;1.95;1.38;;;18.70;99.90;;;;;;4198433;28;20337;-75
2021/12/30 06:00:42;;;;;;;2.30;1.42;;;18.70;99.90;;;;;;4197578;28;20269;-75
2021/12/30 06:02:45;;;;;;;2.05;1.20;;;18.70;99.90;;;;;;4198623;28;20940;-75
2021/12/30 06:04:47;;;;;;;1.80;1.42;;;18.80;99.90;;;;;;4198505;28;20268;-74
2021/12/30 06:06:50;;;;;;;1.92;1.35;;;18.70;99.90;;;;;;4198562;28;20261;-74
2021/12/30 06:08:53;;;;;;;2.45;1.35;;;18.80;99.90;;;;;;4198010;28;20215;-75
2021/12/30 06:10:57;;;;;;;1.60;1.30;;;18.80;99.90;;;;;;4198474;28;20207;-75
2021/12/30 06:12:59;;;;;;;2.38;1.40;;;18.80;99.90;;;;;;4198305;28;20265;-75
2021/12/30 06:15:01;;;;;;;2.65;1.40;;;18.90;99.90;;;;;;4198323;28;20598;-75
2021/12/30 06:17:04;;;;;;;1.50;1.20;;;18.80;99.90;;;;;;4198299;28;20284;-75
2021/12/30 06:19:06;;;;;;;1.58;1.20;;;18.80;99.90;;;;;;4198534;28;20606;-75
2021/12/30 06:21:09;;;;;;;2.40;1.40;;;18.90;99.90;;;;;;4198383;28;20264;-75
2021/12/30 06:23:12;;;;;;;1.77;1.30;;;18.90;99.90;;;;;;4198224;28;20608;-75
2021/12/30 06:25:14;;;;;;;1.70;1.10;;;18.90;99.90;;;;;;4197965;28;20277;-74
2021/12/30 06:27:18;;;;;;;2.70;1.30;;;18.90;99.90;;;;;;4198041;28;20207;-75
2021/12/30 06:29:20;;;;;;;2.05;1.25;;;18.90;99.90;;;;;;4197999;28;20214;-74
2021/12/30 06:31:22;;;;;;;1.77;1.30;;;18.90;99.90;;;;;;4198409;28;20269;-74
2021/12/30 06:33:25;;;;;;;1.40;1.00;;;19.00;99.90;;;;;;4197694;28;20284;-74
2021/12/30 06:35:31;;;;;;;1.60;1.20;;;19.00;99.90;;;;;;4197972;28;20559;-74
2021/12/30 06:37:34;;;;;;;2.20;1.25;;;19.00;99.90;;;;;;4197704;28;20215;-75
2021/12/30 06:39:36;;;;;;;1.50;1.40;;;19.00;99.90;;;;;;4197937;28;20215;-75
2021/12/30 06:41:41;;;;;;;2.20;1.30;;;19.00;99.90;;;;;;4198123;28;20277;-75
2021/12/30 06:43:45;;;;;;;1.42;1.17;;;19.00;99.90;;;;;;4197958;28;20253;-75
2021/12/30 06:45:47;;;;;;;1.75;1.30;;;19.10;99.90;;;;;;4197729;28;20211;-75
2021/12/30 06:47:49;;;;;;;1.45;1.20;;;19.10;99.90;;;;;;4164721;28;20616;-75
2021/12/30 06:49:58;;;;;;;2.08;1.27;;;19.10;99.90;;;;;;4164931;28;20224;-75
2021/12/30 06:52:00;;;;;;;1.90;1.25;;;19.10;99.90;;;;;;4165150;28;20204;-75
2021/12/30 06:54:03;;;;;;;1.52;1.40;;;19.10;99.90;;;;;;4164898;28;20677;-75
2021/12/30 06:56:06;;;;;;;1.75;1.13;;;19.20;99.90;;;;;;4164435;28;20232;-74
2021/12/30 06:58:10;;;;;;;1.55;1.23;;;19.20;99.90;;;;;;4164648;28;20246;-75
2021/12/30 07:00:14;;;;;;;1.58;1.15;;;19.20;99.90;;;;;;4164305;28;20263;-75
2021/12/30 07:02:17;;;;;;;1.70;1.17;;;19.20;99.90;;;;;;4164637;28;20221;-75
2021/12/30 07:04:20;;;;;;;2.25;1.30;;;19.20;99.90;;;;;;4164656;28;20271;-74
2021/12/30 07:06:22;;;;;;;2.38;0.90;;;19.20;99.90;;;;;;4164771;28;20613;-75
2021/12/30 07:08:24;;;;;;;2.33;1.30;;;19.30;99.90;;;;;;4164120;28;20282;-75
2021/12/30 07:10:27;;;;;;;1.50;1.00;;;19.30;99.90;;;;;;4163966;28;20216;-74
2021/12/30 07:12:30;;;;;;;1.45;1.20;;;19.30;99.90;;;;;;4164402;28;20258;-75
2021/12/30 07:14:32;;;;;;;2.33;1.33;;;19.30;99.90;;;;;;4164246;28;20220;-75
2021/12/30 07:16:36;;;;;;;1.15;1.00;;;19.30;99.90;;;;;;4164549;28;20240;-74
2021/12/30 07:18:38;;;;;;;2.13;1.17;;;19.30;99.90;;;;;;4164335;28;20217;-74
2021/12/30 07:20:40;;;;;;;2.22;1.30;;;19.30;99.90;;;;;;4164589;28;20281;-74
2021/12/30 07:22:43;;;;;;;2.25;1.10;;;19.30;99.90;;;;;;4163909;28;20224;-74
2021/12/30 07:24:45;;;;;;;1.92;1.08;;;19.40;99.90;;;;;;4164005;28;20220;-74
2021/12/30 07:26:47;;;;;;;1.23;1.00;;;19.30;99.90;;;;;;4163747;28;20270;-75
2021/12/30 07:28:50;;;;;;;1.75;1.17;;;19.40;99.90;;;;;;4163988;28;20213;-75
2021/12/30 07:30:52;;;;;;;2.08;1.20;;;19.40;99.90;;;;;;4164367;28;20318;-74
2021/12/30 07:32:56;;;;;;;1.55;0.98;;;19.30;99.90;;;;;;4163539;28;20280;-75
2021/12/30 07:34:58;;;;;;;2.30;1.20;;;19.40;99.90;;;;;;4162330;28;20645;-75
2021/12/30 07:37:00;;;;;;;1.20;1.10;;;19.40;99.90;;;;;;4179447;28;20238;-75
2021/12/30 07:39:03;;;;;;;1.95;1.30;;;19.40;99.90;;;;;;4197012;28;20284;-74
2021/12/30 07:41:05;;;;;;;1.50;1.05;;;19.40;99.90;;;;;;4197134;28;20268;-75
2021/12/30 07:43:08;;;;;;;1.63;1.02;;;19.40;99.90;;;;;;4197318;28;20219;-75
2021/12/30 07:45:12;;;;;;;1.10;1.00;;;19.40;99.90;;;;;;4196881;28;20680;-74
2021/12/30 07:47:14;;;;;;;1.33;0.90;;;19.50;99.90;;;;;;4184286;28;20270;-75
2021/12/30 07:49:18;;;;;;;1.10;1.00;;;19.50;99.90;;;;;;4180231;28;20269;-75
2021/12/30 07:51:20;;;;;;;2.03;1.42;;;19.50;99.90;;;;;;4179985;28;20261;-74
2021/12/30 07:53:22;;;;;;;1.08;0.90;;;19.50;99.90;;;;;;4180157;28;20355;-75
2021/12/30 07:55:25;;;;;;;1.38;1.05;;;19.50;99.90;;;;;;4180592;28;20614;-75
2021/12/30 07:57:27;;;;;;;1.63;1.23;;;19.50;99.90;;;;;;4179953;28;20638;-74
2021/12/30 07:59:29;;;;;;;2.22;1.33;;;19.50;99.90;;;;;;4180164;28;20220;-74
2021/12/30 08:01:32;;;;;;;1.35;0.95;;;19.50;99.90;;;;;;4180295;28;20219;-74
2021/12/30 08:03:34;;;;;;;1.80;1.17;;;19.50;99.90;;;;;;4180293;28;20215;-75
2021/12/30 08:05:37;;;;;;;1.75;1.20;;;19.50;99.90;;;;;;4180087;28;20754;-74
2021/12/30 08:07:41;;;;;;;1.80;1.33;;;19.50;99.90;;;;;;4179997;28;20204;-74
2021/12/30 08:09:43;;;;;;;2.08;1.30;;;19.50;99.90;;;;;;4180203;28;20224;-75
2021/12/30 08:11:45;;;;;;;1.88;1.30;;;19.60;99.90;;;;;;4179969;28;20216;-74
2021/12/30 08:13:47;;;;;;;2.42;1.10;;;19.60;99.90;;;;;;4180185;28;20219;-75
2021/12/30 08:15:50;;;;;;;2.58;1.10;;;19.60;99.90;;;;;;4180280;28;20258;-74
2021/12/30 08:17:54;;;;;;;1.42;0.95;;;19.60;99.90;;;;;;4179956;28;20227;-74
2021/12/30 08:19:56;;;;;;;1.85;1.10;;;19.60;99.90;;;;;;4179888;28;20297;-74
2021/12/30 08:22:00;;;;;;;1.63;1.10;;;19.60;99.90;;;;;;4179857;28;20220;-74
2021/12/30 08:24:03;;;;;;;1.48;1.00;;;19.60;99.90;;;;;;4181982;28;20255;-74
2021/12/30 08:26:06;;;;;;;1.58;1.20;;;19.70;99.90;;;;;;4183601;28;20220;-74
2021/12/30 08:28:08;;;;;;;1.85;1.20;;;19.60;99.90;;;;;;4183176;28;20603;-74
2021/12/30 08:30:13;;;;;;;1.52;1.00;;;19.60;99.90;;;;;;4183351;28;20289;-74
2021/12/30 08:32:16;;;;;;;1.88;1.10;;;19.60;99.90;;;;;;4183229;28;20219;-75
2021/12/30 08:34:19;;;;;;;1.23;1.05;;;19.70;99.90;;;;;;4183293;28;20628;-75
2021/12/30 08:36:21;;;;;;;1.63;1.10;;;19.70;99.90;;;;;;4183094;28;20277;-75
2021/12/30 08:38:25;;;;;;;1.33;1.00;;;19.70;99.90;;;;;;4183363;28;20741;-74
2021/12/30 08:40:27;;;;;;;1.05;0.90;;;19.70;99.90;;;;;;4183503;28;20215;-74
2021/12/30 08:42:31;;;;;;;1.30;0.93;;;19.80;99.90;;;;;;4183136;28;20219;-74
2021/12/30 08:44:33;;;;;;;0.98;0.80;;;19.70;99.90;;;;;;4182923;28;20219;-75
2021/12/30 08:46:35;;;;;;;1.48;1.15;;;19.80;99.90;;;;;;4182801;28;20208;-74
2021/12/30 08:48:38;;;;;;;1.42;1.10;;;19.80;99.90;;;;;;4183476;28;21021;-74
2021/12/30 08:50:41;;;;;;;1.13;0.90;;;19.70;99.90;;;;;;4183440;28;20220;-74
2021/12/30 08:52:45;;;;;;;1.80;1.00;;;19.80;99.90;;;;;;4183136;28;20224;-74
2021/12/30 08:54:50;;;;;;;1.02;0.90;;;19.80;99.90;;;;;;4182949;28;20660;-74
2021/12/30 08:56:52;;;;;;;1.25;0.88;;;19.80;99.90;;;;;;4182597;28;20243;-74
2021/12/30 08:58:54;;;;;;;1.42;1.00;;;19.80;99.90;;;;;;4182792;28;20273;-74
2021/12/30 09:00:57;;;;;;;1.52;1.00;;;19.80;99.90;;;;;;4183072;28;20265;-75
2021/12/30 09:03:04;;;;;;;1.63;1.20;;;19.80;99.90;;;;;;4182855;28;20207;-74
2021/12/30 09:05:07;;;;;;;1.92;1.27;;;19.80;99.90;;;;;;4182345;28;20215;-74
2021/12/30 09:07:10;;;;;;;2.22;1.00;;;19.80;99.90;;;;;;4183166;28;20216;-74
2021/12/30 09:09:13;;;;;;;1.83;1.02;;;19.80;99.90;;;;;;4182676;28;20211;-75
2021/12/30 09:11:16;;;;;;;1.70;0.90;;;19.80;99.90;;;;;;4182681;28;20223;-74
2021/12/30 09:13:20;;;;;;;2.00;1.00;;;19.90;99.90;;;;;;4182334;28;20219;-74
2021/12/30 09:15:24;;;;;;;1.50;0.88;;;19.80;99.90;;;;;;4182468;28;20211;-74
2021/12/30 09:17:26;;;;;;;2.50;1.10;;;19.90;99.90;;;;;;4182320;28;20243;-74
2021/12/30 09:19:29;;;;;;;1.30;1.10;;;19.80;99.90;;;;;;4182157;28;20273;-75
2021/12/30 09:21:31;;;;;;;1.20;0.90;;;19.90;99.90;;;;;;4182739;28;20672;-74
2021/12/30 09:23:33;;;;;;;2.28;1.40;;;19.90;99.90;;;;;;4178245;28;20288;-75
2021/12/30 09:25:36;;;;;;;2.17;1.02;;;19.90;99.90;;;;;;4190643;28;20208;-75
2021/12/30 09:27:42;;;;;;;1.17;1.00;;;19.90;99.90;;;;;;4199192;28;20208;-74
2021/12/30 09:29:44;;;;;;;2.20;1.10;;;19.90;99.90;;;;;;4198903;28;20609;-75
2021/12/30 09:31:49;;;;;;;2.33;1.10;;;19.90;99.90;;;;;;4199131;28;20714;-75
2021/12/30 09:33:51;;;;;;;1.73;0.90;;;19.90;99.90;;;;;;4198634;28;20239;-75
2021/12/30 09:35:53;;;;;;;1.40;1.10;;;19.90;99.90;;;;;;4199132;28;21101;-74
2021/12/30 09:37:56;;;;;;;2.38;1.10;;;19.90;99.90;;;;;;4198991;28;20235;-74
2021/12/30 09:39:59;;;;;;;1.02;0.80;;;20.00;99.90;;;;;;4198784;28;20215;-75
2021/12/30 09:42:02;;;;;;;2.70;1.15;;;20.00;99.90;;;;;;4199021;28;20219;-75
2021/12/30 09:44:06;;;;;;;1.50;1.20;;;20.00;99.90;;;;;;4198489;28;20270;-75
2021/12/30 09:46:09;;;;;;;1.88;1.10;;;20.00;99.90;;;;;;4195813;28;20208;-74
2021/12/30 09:48:14;;;;;;;1.30;0.93;;;20.00;99.90;;;;;;4181852;28;20241;-75
2021/12/30 09:50:17;;;;;;;1.13;1.02;;;20.00;99.90;;;;;;4181986;28;20266;-75
2021/12/30 09:52:20;;;;;;;1.77;1.17;;;20.00;99.90;;;;;;4182146;28;20258;-75
2021/12/30 09:54:23;;;;;;;2.80;1.10;;;20.00;99.90;;;;;;4182137;28;20224;-74
2021/12/30 09:56:26;;;;;;;1.00;0.90;;;20.00;99.90;;;;;;4182090;28;20273;-74
2021/12/30 09:58:29;;;;;;;1.73;1.00;;;20.00;99.90;;;;;;4181689;28;20278;-75
2021/12/30 10:00:33;;;;;;;1.83;1.00;;;20.00;99.90;;;;;;4182021;28;20245;-74
2021/12/30 10:02:35;;;;;;;1.77;1.10;;;20.00;99.90;;;;;;4181996;28;20246;-75
2021/12/30 10:04:39;;;;;;;1.70;1.13;;;20.00;99.90;;;;;;4181665;28;20224;-74
2021/12/30 10:06:43;;;;;;;1.73;1.00;;;20.10;99.90;;;;;;4182335;28;20274;-74
2021/12/30 10:08:54;;;;;;;1.73;1.02;;;20.00;99.90;;;;;;4181735;28;20211;-74
2021/12/30 10:11:01;;;;;;;1.85;0.98;;;20.10;99.90;;;;;;4181818;28;20219;-75
2021/12/30 10:13:22;;;;;;;1.40;1.20;;;20.10;99.90;;;;;;4181561;28;20273;-75
2021/12/30 10:15:30;;;;;;;1.30;0.90;;;20.10;99.90;;;;;;4182205;28;20637;-74
2021/12/30 10:17:35;;;;;;;1.40;1.08;;;20.10;99.90;;;;;;4181635;28;20242;-74
2021/12/30 10:19:40;;;;;;;1.73;1.13;;;20.10;99.90;;;;;;4181680;28;20224;-75
2021/12/30 10:21:44;;;;;;;1.67;0.90;;;20.10;99.90;;;;;;4181768;28;20265;-74
2021/12/30 10:23:49;;;;;;;1.25;0.82;;;20.10;99.90;;;;;;4181806;28;20293;-75
2021/12/30 10:25:53;;;;;;;1.00;0.85;;;20.10;99.90;;;;;;4181501;28;20326;-74
2021/12/30 10:27:56;;;;;;;1.73;0.90;;;20.20;99.90;;;;;;4181636;28;20651;-74
2021/12/30 10:30:03;;;;;;;1.13;0.90;;;20.20;99.90;;;;;;4181560;28;20215;-75
2021/12/30 10:32:13;;;;;;;1.45;0.90;;;20.10;99.90;;;;;;4181638;28;20214;-74
2021/12/30 10:34:18;;;;;;;1.58;0.80;;;20.20;99.90;;;;;;4181320;28;20223;-74
2021/12/30 10:36:23;;;;;;;1.80;0.80;;;20.20;99.90;;;;;;4180990;28;20224;-74
2021/12/30 10:38:29;;;;;;;2.22;1.00;;;20.20;99.90;;;;;;4181288;28;20239;-74
2021/12/30 10:40:34;;;;;;;2.58;1.33;;;20.20;99.90;;;;;;4181262;28;20250;-75